createdAt,value
2018-12-22T00:01:39.516Z,0.80
2018-12-22T00:04:07.031Z,0.60
2018-12-22T00:06:34.548Z,0.60
2018-12-22T00:09:02.062Z,0.53
2018-12-22T00:11:29.584Z,0.90
2018-12-22T00:13:57.106Z,0.60
2018-12-22T00:16:24.629Z,0.70
2018-12-22T00:18:52.149Z,0.70
2018-12-22T00:21:19.659Z,0.63
2018-12-22T00:23:47.189Z,0.70
2018-12-22T00:26:14.708Z,0.50
2018-12-22T00:28:42.221Z,0.57
2018-12-22T00:31:09.738Z,0.60
2018-12-22T00:33:37.253Z,0.67
2018-12-22T00:36:04.781Z,0.63
2018-12-22T00:38:32.294Z,0.70
2018-12-22T00:40:59.839Z,0.70
2018-12-22T00:43:27.380Z,0.70
2018-12-22T00:45:54.915Z,0.80
2018-12-22T00:48:23.122Z,0.67
2018-12-22T00:50:50.633Z,0.63
2018-12-22T00:53:18.146Z,0.80
2018-12-22T00:55:45.659Z,0.80
2018-12-22T00:58:13.168Z,1.00
2018-12-22T01:00:40.686Z,0.70
2018-12-22T01:03:08.207Z,0.70
2018-12-22T01:05:35.733Z,0.80
2018-12-22T01:08:03.531Z,1.00
2018-12-22T01:10:31.061Z,0.90
2018-12-22T01:12:58.587Z,0.90
2018-12-22T01:15:26.110Z,0.80
2018-12-22T01:17:53.635Z,0.70
2018-12-22T01:20:21.164Z,0.87
2018-12-22T01:22:48.697Z,0.80
2018-12-22T01:25:16.223Z,0.80
2018-12-22T01:27:43.752Z,0.70
2018-12-22T01:30:11.393Z,1.10
2018-12-22T01:32:38.924Z,0.90
2018-12-22T01:35:06.532Z,0.90
2018-12-22T01:37:34.058Z,1.10
2018-12-22T01:40:01.587Z,1.00
2018-12-22T01:42:29.110Z,0.90
2018-12-22T01:44:56.666Z,0.90
2018-12-22T01:47:24.194Z,0.90
2018-12-22T01:49:51.718Z,1.10
2018-12-22T01:52:19.231Z,1.00
2018-12-22T01:54:46.752Z,0.70
2018-12-22T01:57:14.268Z,1.00
2018-12-22T01:59:42.587Z,1.10
2018-12-22T02:02:10.234Z,1.00
2018-12-22T02:04:37.814Z,0.93
2018-12-22T02:07:05.335Z,1.07
2018-12-22T02:09:32.858Z,0.90
2018-12-22T02:12:00.374Z,1.17
2018-12-22T02:14:27.898Z,1.00
2018-12-22T02:16:55.449Z,1.00
2018-12-22T02:19:23.166Z,1.00
2018-12-22T02:21:50.695Z,0.90
2018-12-22T02:24:18.227Z,1.00
2018-12-22T02:26:45.742Z,1.10
2018-12-22T02:29:13.256Z,1.20
2018-12-22T02:31:40.781Z,0.93
2018-12-22T02:34:08.306Z,1.10
2018-12-22T02:36:35.820Z,1.30
2018-12-22T02:39:05.732Z,1.10
2018-12-22T02:41:33.382Z,1.10
2018-12-22T02:44:00.932Z,1.00
2018-12-22T02:46:28.463Z,1.10
2018-12-22T02:48:55.980Z,1.00
2018-12-22T02:51:23.501Z,1.17
2018-12-22T02:53:51.025Z,1.00
2018-12-22T02:56:18.546Z,0.90
2018-12-22T02:58:46.061Z,0.97
2018-12-22T03:01:13.586Z,1.00
2018-12-22T03:03:41.100Z,1.30
2018-12-22T03:06:08.625Z,0.90
2018-12-22T03:08:36.140Z,1.23
2018-12-22T03:11:03.656Z,1.00
2018-12-22T03:13:31.208Z,0.90
2018-12-22T03:15:58.730Z,0.90
2018-12-22T03:18:26.248Z,1.27
2018-12-22T03:20:53.774Z,1.00
2018-12-22T03:23:21.299Z,0.90
2018-12-22T03:25:48.836Z,1.00
2018-12-22T03:28:16.370Z,0.77
2018-12-22T03:30:44.002Z,0.83
2018-12-22T03:33:11.818Z,1.03
2018-12-22T03:35:39.566Z,0.80
2018-12-22T03:38:07.081Z,1.00
2018-12-22T03:40:34.622Z,0.90
2018-12-22T03:43:02.149Z,1.07
2018-12-22T03:45:29.652Z,1.00
2018-12-22T03:47:57.158Z,1.30
2018-12-22T03:50:24.674Z,1.20
2018-12-22T03:52:52.185Z,1.00
2018-12-22T03:55:19.706Z,1.10
2018-12-22T03:57:47.225Z,1.13
2018-12-22T04:00:14.797Z,1.00
2018-12-22T04:02:42.350Z,1.07
2018-12-22T04:05:09.874Z,1.10
2018-12-22T04:07:37.390Z,1.20
2018-12-22T04:10:06.409Z,1.50
2018-12-22T04:12:33.932Z,1.20
2018-12-22T04:15:01.453Z,1.10
2018-12-22T04:17:28.984Z,1.10
2018-12-22T04:19:56.543Z,1.20
2018-12-22T04:22:24.103Z,0.90
2018-12-22T04:24:53.267Z,1.00
2018-12-22T04:27:20.697Z,1.10
2018-12-22T04:29:48.141Z,1.23
2018-12-22T04:32:16.596Z,0.93
2018-12-22T04:34:44.070Z,1.07
2018-12-22T04:37:11.554Z,1.30
2018-12-22T04:39:39.228Z,1.10
2018-12-22T04:42:06.790Z,1.23
2018-12-22T04:44:34.246Z,1.00
2018-12-22T04:47:01.739Z,0.73
2018-12-22T04:49:29.249Z,1.10
2018-12-22T04:51:56.739Z,1.30
2018-12-22T04:54:24.251Z,1.10
2018-12-22T04:56:51.780Z,1.07
2018-12-22T04:59:19.235Z,1.00
2018-12-22T05:01:46.844Z,0.90
2018-12-22T05:04:14.387Z,0.90
2018-12-22T05:06:41.983Z,0.80
2018-12-22T05:09:09.460Z,1.10
2018-12-22T05:11:36.962Z,1.07
2018-12-22T05:14:04.439Z,0.80
2018-12-22T05:16:31.949Z,0.90
2018-12-22T05:18:59.451Z,1.07
2018-12-22T05:21:26.958Z,1.10
2018-12-22T05:23:54.593Z,1.00
2018-12-22T05:26:22.100Z,1.10
2018-12-22T05:28:49.668Z,0.93
2018-12-22T05:31:17.370Z,1.00
2018-12-22T05:33:44.966Z,0.90
2018-12-22T05:36:12.481Z,1.00
2018-12-22T05:38:39.997Z,1.40
2018-12-22T05:41:07.498Z,1.00
2018-12-22T05:43:35.003Z,1.07
2018-12-22T05:46:02.489Z,0.90
2018-12-22T05:48:30.027Z,0.90
2018-12-22T05:50:57.535Z,0.97
2018-12-22T05:53:25.047Z,0.80
2018-12-22T05:55:52.556Z,1.00
2018-12-22T05:58:20.060Z,0.90
2018-12-22T06:00:47.650Z,0.80
2018-12-22T06:03:15.172Z,0.90
2018-12-22T06:05:42.666Z,0.77
2018-12-22T06:08:10.171Z,0.80
2018-12-22T06:10:37.876Z,0.93
2018-12-22T06:13:05.385Z,0.87
2018-12-22T06:15:32.895Z,0.77
2018-12-22T06:18:00.393Z,0.73
2018-12-22T06:20:27.903Z,0.70
2018-12-22T06:22:55.562Z,0.70
2018-12-22T06:25:23.088Z,0.60
2018-12-22T06:27:50.606Z,0.60
2018-12-22T06:30:18.124Z,0.80
2018-12-22T06:32:45.646Z,0.60
2018-12-22T06:35:13.159Z,0.70
2018-12-22T06:37:40.672Z,0.80
2018-12-22T06:40:08.187Z,0.80
2018-12-22T06:42:35.695Z,0.80
2018-12-22T06:45:03.794Z,0.93
2018-12-22T06:47:31.303Z,0.90
2018-12-22T06:49:58.818Z,0.83
2018-12-22T06:52:26.338Z,0.80
2018-12-22T06:54:53.852Z,0.80
2018-12-22T06:57:21.373Z,0.80
2018-12-22T06:59:48.930Z,0.73
2018-12-22T07:02:16.517Z,0.77
2018-12-22T07:04:44.029Z,0.80
2018-12-22T07:07:11.543Z,0.97
2018-12-22T07:09:39.251Z,0.73
2018-12-22T07:12:06.945Z,0.70
2018-12-22T07:14:34.451Z,0.70
2018-12-22T07:17:01.994Z,0.70
2018-12-22T07:19:29.510Z,0.83
2018-12-22T07:21:57.024Z,0.97
2018-12-22T07:24:24.540Z,0.80
2018-12-22T07:26:52.056Z,0.90
2018-12-22T07:29:19.568Z,0.93
2018-12-22T07:31:47.077Z,0.97
2018-12-22T07:34:14.582Z,1.03
2018-12-22T07:36:42.096Z,0.90
2018-12-22T07:39:09.589Z,1.10
2018-12-22T07:41:37.114Z,1.30
2018-12-22T07:44:04.602Z,1.47
2018-12-22T07:46:32.122Z,1.23
2018-12-22T07:48:59.647Z,1.00
2018-12-22T07:51:28.460Z,0.90
2018-12-22T07:53:56.382Z,1.07
2018-12-22T07:56:23.964Z,0.93
2018-12-22T07:58:51.484Z,1.63
2018-12-22T08:01:19.971Z,1.33
2018-12-22T08:03:47.596Z,1.00
2018-12-22T08:06:15.103Z,1.00
2018-12-22T08:08:42.628Z,1.23
2018-12-22T08:11:10.144Z,1.57
2018-12-22T08:13:37.673Z,0.97
2018-12-22T08:16:05.179Z,0.70
2018-12-22T08:18:32.689Z,1.13
2018-12-22T08:21:00.198Z,0.97
2018-12-22T08:23:27.710Z,0.90
2018-12-22T08:25:55.217Z,0.97
2018-12-22T08:28:22.737Z,0.70
2018-12-22T08:30:51.555Z,0.70
2018-12-22T08:33:19.557Z,0.80
2018-12-22T08:35:47.526Z,0.93
2018-12-22T08:38:15.481Z,0.60
2018-12-22T08:40:43.450Z,0.70
2018-12-22T08:43:11.411Z,0.60
2018-12-22T08:45:39.401Z,1.20
2018-12-22T08:48:07.206Z,0.60
2018-12-22T08:50:35.042Z,0.77
2018-12-22T08:53:02.895Z,0.70
2018-12-22T08:55:31.420Z,0.73
2018-12-22T08:57:59.165Z,0.90
2018-12-22T09:00:26.765Z,0.70
2018-12-22T09:02:54.288Z,0.80
2018-12-22T09:05:21.923Z,0.50
2018-12-22T09:07:49.579Z,0.60
2018-12-22T09:10:17.364Z,0.93
2018-12-22T09:12:45.107Z,0.70
2018-12-22T09:15:14.179Z,0.70
2018-12-22T09:17:42.066Z,0.70
2018-12-22T09:20:10.034Z,0.70
2018-12-22T09:22:37.906Z,0.87
2018-12-22T09:25:07.102Z,0.80
2018-12-22T09:27:35.042Z,0.90
2018-12-22T09:30:02.640Z,0.73
2018-12-22T09:32:30.304Z,0.70
2018-12-22T09:34:58.151Z,0.70
2018-12-22T09:37:25.917Z,0.70
2018-12-22T09:39:53.640Z,0.57
2018-12-22T09:42:21.795Z,0.80
2018-12-22T09:44:49.482Z,0.80
2018-12-22T09:47:17.084Z,0.80
2018-12-22T09:49:44.835Z,0.70
2018-12-22T09:52:13.345Z,0.73
2018-12-22T09:54:41.081Z,0.87
2018-12-22T09:57:08.946Z,0.60
2018-12-22T09:59:36.811Z,0.73
2018-12-22T10:02:04.682Z,0.57
2018-12-22T10:04:32.511Z,0.70
2018-12-22T10:07:00.388Z,0.80
2018-12-22T10:09:28.090Z,0.80
2018-12-22T10:11:56.041Z,0.70
2018-12-22T10:14:23.907Z,0.90
2018-12-22T10:16:51.568Z,1.00
2018-12-22T10:19:19.331Z,0.77
2018-12-22T10:21:47.093Z,0.80
2018-12-22T10:24:14.650Z,0.80
2018-12-22T10:26:42.256Z,0.70
2018-12-22T10:29:09.820Z,0.80
2018-12-22T10:31:37.524Z,0.90
2018-12-22T10:34:05.414Z,1.13
2018-12-22T10:36:33.017Z,1.07
2018-12-22T10:39:00.641Z,1.60
2018-12-22T10:41:28.295Z,0.90
2018-12-22T10:43:55.916Z,0.93
2018-12-22T10:46:23.602Z,0.80
2018-12-22T10:48:51.369Z,0.80
2018-12-22T10:51:24.289Z,1.03
2018-12-22T10:53:48.838Z,1.60
2018-12-22T10:56:16.605Z,1.40
2018-12-22T10:58:45.109Z,1.10
2018-12-22T11:01:12.846Z,0.97
2018-12-22T11:03:40.428Z,1.00
2018-12-22T11:06:08.101Z,1.00
2018-12-22T11:08:36.734Z,1.13
2018-12-22T11:11:04.616Z,0.73
2018-12-22T11:13:32.485Z,0.93
2018-12-22T11:16:00.312Z,0.70
2018-12-22T11:18:28.111Z,0.97
2018-12-22T11:20:55.773Z,0.87
2018-12-22T11:23:23.340Z,1.20
2018-12-22T11:25:50.842Z,1.07
2018-12-22T11:28:18.336Z,1.00
2018-12-22T11:30:45.809Z,0.80
2018-12-22T11:33:13.311Z,0.80
2018-12-22T11:35:40.922Z,1.00
2018-12-22T11:38:08.410Z,1.30
2018-12-22T11:40:35.911Z,1.23
2018-12-22T11:43:03.392Z,1.10
2018-12-22T11:45:30.982Z,1.07
2018-12-22T11:47:59.913Z,1.10
2018-12-22T11:50:27.406Z,1.20
2018-12-22T11:52:54.900Z,0.93
2018-12-22T11:55:22.408Z,0.73
2018-12-22T11:57:49.886Z,1.10
2018-12-22T12:00:17.346Z,1.30
2018-12-22T12:02:44.977Z,1.00
2018-12-22T12:05:12.465Z,1.90
2018-12-22T12:07:40.022Z,1.70
2018-12-22T12:10:09.252Z,1.37
2018-12-22T12:12:36.718Z,1.80
2018-12-22T12:15:14.770Z,1.10
2018-12-22T12:17:48.750Z,1.27
2018-12-22T12:20:16.334Z,1.20
2018-12-22T12:22:43.891Z,1.30
2018-12-22T12:25:11.427Z,0.90
2018-12-22T12:27:38.901Z,1.20
2018-12-22T12:30:08.669Z,0.90
2018-12-22T12:32:36.194Z,1.00
2018-12-22T12:35:05.187Z,1.00
2018-12-22T12:37:33.586Z,1.33
2018-12-22T12:40:01.081Z,1.87
2018-12-22T12:42:28.639Z,1.60
2018-12-22T12:44:56.142Z,3.20
2018-12-22T12:47:23.643Z,1.23
2018-12-22T12:49:51.156Z,2.27
2018-12-22T12:52:18.806Z,1.73
2018-12-22T12:54:46.427Z,1.47
2018-12-22T12:57:14.235Z,1.30
2018-12-22T12:59:41.726Z,1.83
2018-12-22T13:02:09.260Z,1.97
2018-12-22T13:04:36.881Z,1.07
2018-12-22T13:07:04.681Z,1.43
2018-12-22T13:09:32.664Z,1.30
2018-12-22T13:12:00.634Z,1.07
2018-12-22T13:14:28.306Z,1.93
2018-12-22T13:16:56.124Z,1.37
2018-12-22T13:19:23.779Z,1.60
2018-12-22T13:21:51.658Z,1.50
2018-12-22T13:24:19.527Z,1.50
2018-12-22T13:26:47.377Z,1.40
2018-12-22T13:29:14.898Z,1.50
2018-12-22T13:31:42.468Z,1.37
2018-12-22T13:34:10.042Z,1.50
2018-12-22T13:36:37.719Z,1.60
2018-12-22T13:39:05.353Z,1.53
2018-12-22T13:41:33.249Z,1.57
2018-12-22T13:44:01.216Z,1.63
2018-12-22T13:46:28.754Z,1.20
2018-12-22T13:48:56.703Z,1.67
2018-12-22T13:51:24.605Z,1.80
2018-12-22T13:53:52.219Z,1.90
2018-12-22T13:56:19.735Z,1.60
2018-12-22T13:58:47.489Z,1.23
2018-12-22T14:01:15.131Z,1.77
2018-12-22T14:03:42.640Z,1.97
2018-12-22T14:06:10.282Z,2.10
2018-12-22T14:08:37.815Z,1.73
2018-12-22T14:11:05.322Z,1.80
2018-12-22T14:13:32.772Z,1.53
2018-12-22T14:16:00.484Z,1.30
2018-12-22T14:18:31.974Z,1.57
2018-12-22T14:20:59.507Z,1.33
2018-12-22T14:23:31.016Z,1.60
2018-12-22T14:25:58.609Z,1.50
2018-12-22T14:28:26.123Z,1.43
2018-12-22T14:30:53.637Z,1.50
2018-12-22T14:33:21.199Z,1.80
2018-12-22T14:35:48.857Z,1.93
2018-12-22T14:38:16.369Z,2.07
2018-12-22T14:40:43.909Z,1.97
2018-12-22T14:43:11.496Z,1.57
2018-12-22T14:45:38.979Z,1.90
2018-12-22T14:48:06.491Z,2.10
2018-12-22T14:50:34.071Z,1.83
2018-12-22T14:53:01.594Z,2.17
2018-12-22T14:55:31.098Z,1.80
2018-12-22T14:58:08.637Z,1.90
2018-12-22T15:00:40.580Z,1.83
2018-12-22T15:03:08.247Z,2.30
2018-12-22T15:05:35.771Z,3.03
2018-12-22T15:08:03.308Z,2.80
2018-12-22T15:10:30.860Z,3.03
2018-12-22T15:12:58.416Z,2.30
2018-12-22T15:15:25.936Z,2.20
2018-12-22T15:17:53.449Z,2.50
2018-12-22T15:20:25.206Z,2.73
2018-12-22T15:22:52.711Z,2.90
2018-12-22T15:25:20.413Z,2.80
2018-12-22T15:27:47.977Z,2.77
2018-12-22T15:30:15.505Z,3.10
2018-12-22T15:32:44.479Z,4.77
2018-12-22T15:35:12.692Z,4.40
2018-12-22T15:37:40.364Z,4.50
2018-12-22T15:40:10.364Z,5.63
2018-12-22T15:42:37.942Z,5.93
2018-12-22T15:45:10.057Z,5.83
2018-12-22T15:47:37.554Z,6.03
2018-12-22T15:50:24.810Z,6.70
2018-12-22T15:52:53.138Z,6.83
2018-12-22T15:55:20.716Z,10.87
2018-12-22T15:57:48.223Z,8.03
2018-12-22T16:00:15.820Z,8.37
2018-12-22T16:02:56.601Z,9.20
2018-12-22T16:05:24.192Z,9.97
2018-12-22T16:07:51.695Z,9.50
2018-12-22T16:10:19.311Z,10.67
2018-12-22T16:12:46.843Z,8.70
2018-12-22T16:15:20.283Z,9.33
2018-12-22T16:17:47.799Z,7.90
2018-12-22T16:20:15.347Z,7.00
2018-12-22T16:22:51.710Z,7.10
2018-12-22T16:25:19.362Z,10.87
2018-12-22T16:27:47.299Z,10.10
2018-12-22T16:30:18.555Z,12.53
2018-12-22T16:32:46.169Z,12.53
2018-12-22T16:35:13.692Z,12.53
2018-12-22T16:37:41.209Z,8.63
2018-12-22T16:40:11.690Z,9.80
2018-12-22T16:42:39.192Z,10.77
2018-12-22T16:45:12.920Z,9.73
2018-12-22T16:47:40.535Z,9.37
2018-12-22T16:50:13.253Z,8.90
2018-12-22T16:52:40.849Z,10.00
2018-12-22T16:55:16.889Z,8.90
2018-12-22T16:57:52.017Z,9.17
2018-12-22T17:00:24.294Z,12.57
2018-12-22T17:02:52.652Z,19.83
2018-12-22T17:05:20.359Z,22.63
2018-12-22T17:07:47.875Z,20.20
2018-12-22T17:10:15.446Z,19.63
2018-12-22T17:12:42.951Z,22.43
2018-12-22T17:15:21.599Z,19.20
2018-12-22T17:17:43.255Z,12.57
2018-12-22T17:20:13.334Z,9.40
2018-12-22T17:26:02.081Z,4.60
2018-12-22T17:28:29.954Z,4.30
2018-12-22T17:30:57.641Z,2.60
2018-12-22T17:33:25.466Z,3.27
2018-12-22T17:35:53.076Z,3.63
2018-12-22T17:38:20.863Z,2.63
2018-12-22T17:40:48.640Z,2.73
2018-12-22T17:43:16.197Z,2.90
2018-12-22T17:45:43.654Z,2.83
2018-12-22T17:48:11.192Z,2.53
2018-12-22T17:50:38.713Z,2.43
2018-12-22T17:53:06.372Z,2.70
2018-12-22T17:55:33.906Z,2.40
2018-12-22T17:58:01.421Z,2.70
2018-12-22T18:00:28.997Z,2.37
2018-12-22T18:02:56.514Z,2.40
2018-12-22T18:05:24.014Z,2.13
2018-12-22T18:07:51.518Z,1.97
2018-12-22T18:10:18.999Z,2.10
2018-12-22T18:12:46.523Z,1.83
2018-12-22T18:15:18.333Z,1.70
2018-12-22T18:17:45.838Z,1.70
2018-12-22T18:20:13.365Z,1.40
2018-12-22T18:22:40.885Z,1.70
2018-12-22T18:25:12.392Z,1.47
2018-12-22T18:27:40.010Z,1.63
2018-12-22T18:30:10.615Z,1.60
2018-12-22T18:32:38.203Z,1.40
2018-12-22T18:35:07.997Z,1.60
2018-12-22T18:37:35.509Z,1.50
2018-12-22T18:40:09.777Z,1.50
2018-12-22T18:42:37.293Z,2.60
2018-12-22T18:45:08.106Z,1.23
2018-12-22T18:47:35.673Z,1.30
2018-12-22T18:50:06.297Z,1.70
2018-12-22T18:52:33.811Z,1.60
2018-12-22T18:55:01.289Z,1.40
2018-12-22T18:57:28.793Z,1.50
2018-12-22T18:59:56.279Z,1.50
2018-12-22T19:02:23.890Z,2.00
2018-12-22T19:04:51.585Z,2.30
2018-12-22T19:07:20.300Z,2.40
2018-12-22T19:09:48.565Z,1.70
2018-12-22T19:12:16.275Z,5.67
2018-12-22T19:14:51.870Z,4.43
2018-12-22T19:17:19.355Z,7.70
2018-12-22T19:19:46.920Z,6.97
2018-12-22T19:22:14.426Z,2.13
2018-12-22T19:24:41.923Z,2.20
2018-12-22T19:27:09.528Z,1.87
2018-12-22T19:29:37.035Z,2.00
2018-12-22T19:32:04.504Z,1.67
2018-12-22T19:34:32.012Z,2.00
2018-12-22T19:36:59.485Z,1.60
2018-12-22T19:39:26.999Z,1.87
2018-12-22T19:41:54.510Z,1.83
2018-12-22T19:44:21.997Z,1.60
2018-12-22T19:46:49.583Z,1.80
2018-12-22T19:49:17.052Z,2.00
2018-12-22T19:51:44.585Z,2.47
2018-12-22T19:54:12.057Z,2.60
2018-12-22T19:56:39.508Z,2.27
2018-12-22T19:59:06.973Z,2.13
2018-12-22T20:01:34.478Z,1.77
2018-12-22T20:04:02.450Z,2.17
2018-12-22T20:06:30.162Z,2.27
2018-12-22T20:08:57.677Z,2.27
2018-12-22T20:11:25.174Z,2.30
2018-12-22T20:13:54.807Z,2.93
2018-12-22T20:16:22.425Z,2.70
2018-12-22T20:18:49.895Z,2.70
2018-12-22T20:21:17.439Z,3.00
2018-12-22T20:23:45.879Z,3.10
2018-12-22T20:26:13.347Z,2.63
2018-12-22T20:28:40.842Z,2.20
2018-12-22T20:31:08.361Z,2.40
2018-12-22T20:33:35.933Z,2.30
2018-12-22T20:36:03.429Z,2.30
2018-12-22T20:38:30.950Z,3.23
2018-12-22T20:40:58.486Z,2.60
2018-12-22T20:43:26.154Z,2.83
2018-12-22T20:45:53.727Z,3.07
2018-12-22T20:48:21.368Z,2.37
2018-12-22T20:50:48.979Z,2.70
2018-12-22T20:53:16.518Z,2.80
2018-12-22T20:55:44.036Z,3.10
2018-12-22T20:58:11.565Z,2.83
2018-12-22T21:00:39.067Z,3.23
2018-12-22T21:03:06.584Z,2.97
2018-12-22T21:05:37.699Z,3.20
2018-12-22T21:08:05.340Z,3.00
2018-12-22T21:10:32.854Z,2.60
2018-12-22T21:13:00.375Z,2.60
2018-12-22T21:15:27.900Z,2.93
2018-12-22T21:17:55.406Z,2.80
2018-12-22T21:20:22.904Z,2.90
2018-12-22T21:22:50.425Z,3.03
2018-12-22T21:25:17.934Z,2.73
2018-12-22T21:27:45.444Z,2.57
2018-12-22T21:30:12.958Z,3.07
2018-12-22T21:32:42.934Z,2.83
2018-12-22T21:35:10.440Z,2.53
2018-12-22T21:37:37.941Z,2.83
2018-12-22T21:40:07.339Z,2.33
2018-12-22T21:42:34.836Z,2.57
2018-12-22T21:45:02.348Z,2.67
2018-12-22T21:47:29.853Z,2.57
2018-12-22T21:49:57.361Z,2.87
2018-12-22T21:52:24.870Z,2.90
2018-12-22T21:54:52.560Z,2.87
2018-12-22T21:57:20.119Z,2.80
2018-12-22T21:59:47.636Z,3.00
2018-12-22T22:02:15.149Z,3.03
2018-12-22T22:04:42.651Z,3.40
2018-12-22T22:07:10.184Z,4.00
2018-12-22T22:09:37.698Z,4.77
2018-12-22T22:12:05.199Z,6.17
2018-12-22T22:14:32.705Z,7.20
2018-12-22T22:17:00.206Z,4.63
2018-12-22T22:19:27.725Z,3.80
2018-12-22T22:21:55.229Z,2.40
2018-12-22T22:24:22.736Z,3.17
2018-12-22T22:26:50.247Z,2.30
2018-12-22T22:29:17.770Z,2.80
2018-12-22T22:31:45.276Z,3.50
2018-12-22T22:34:12.786Z,3.27
2018-12-22T22:36:40.295Z,2.60
2018-12-22T22:39:07.796Z,2.10
2018-12-22T22:41:35.301Z,2.90
2018-12-22T22:44:02.900Z,2.60
2018-12-22T22:46:30.413Z,2.53
2018-12-22T22:48:57.910Z,2.87
2018-12-22T22:51:25.420Z,2.33
2018-12-22T22:53:52.934Z,2.30
2018-12-22T22:56:20.446Z,2.60
2018-12-22T22:58:47.960Z,2.40
2018-12-22T23:01:15.486Z,2.27
2018-12-22T23:03:42.999Z,2.60
2018-12-22T23:06:10.521Z,2.53
2018-12-22T23:08:38.011Z,2.30
2018-12-22T23:11:05.508Z,2.37
2018-12-22T23:13:33.016Z,3.00
2018-12-22T23:16:00.527Z,2.63
2018-12-22T23:18:28.035Z,2.70
2018-12-22T23:20:55.529Z,2.40
2018-12-22T23:23:23.030Z,2.20
2018-12-22T23:25:50.535Z,2.50
2018-12-22T23:28:18.036Z,2.43
2018-12-22T23:30:45.540Z,2.70
2018-12-22T23:33:13.048Z,2.63
2018-12-22T23:35:40.545Z,2.17
2018-12-22T23:38:08.046Z,1.87
2018-12-22T23:40:35.594Z,2.00
2018-12-22T23:43:03.117Z,2.40
2018-12-22T23:45:30.648Z,2.67
2018-12-22T23:47:58.157Z,2.30
2018-12-22T23:50:25.764Z,2.33
2018-12-22T23:52:53.266Z,2.73
2018-12-22T23:55:20.746Z,2.23
2018-12-22T23:57:48.491Z,2.17
